Meath Environmental Platform

Observations for Trim Market St

Time AQI Temp °C Hum % Pres Pa CO μg/m³ H₂S μg/m³ NO μg/m³ NO₂ μg/m³ O₃ μg/m³ SO₂ μg/m³ PM1 μg/m³ PM2.5 μg/m³ PM10 μg/m³
Tuesday 7 July 2026
20:11 1 27.3 51 55,728 0 2.91 0 9.22 15.78 0 4.28 7.03 9.01
20:10 1 27.4 51 55,688 0 3.57 0 9.6 15.29 0 2.85 6.01 7.53
20:09 1 27.4 51 55,646 0 3.83 0 9.89 12.95 0 2.85 6.01 7.53
20:08 1 27.4 51 55,618 0 3.38 0 11.8 21.35 0 2.85 6.53 8.27
20:06 1 27.5 51 55,607 0 0 0 8.3 11.08 0 3.56 6.02 7.53
20:05 1 27.5 51 55,626 0 1.24 0 8.88 11.45 0 3.56 6.02 7.53
19:57 1 27.7 50 55,912 0 5.61 0 12.62 21.13 0 3.56 7.09 12
19:54 1 27.8 49 56,377 0 3.6 0 10.45 18.59 0 2.85 6.6 8.28
19:51 1 27.9 50 56,543 0 2.31 0 9.41 13.84 0 3.56 6.6 8.28
19:49 1 27.9 49 56,594 0 2.95 0 8.92 12.05 0 2.85 6.6 8.28
19:47 1 28 49 56,576 0 5.75 0 11.32 19.51 0 3.56 6.1 8.28
19:46 1 28 49 56,816 0 5.94 0 10.82 19.43 0 4.28 8.16 12.03
19:45 1 28 49 56,980 0 5.06 0 10.93 14.38 0 3.56 6.62 9.03
19:44 1 28 49 57,081 0 5.22 0 11.93 16.05 0 2.85 6.1 7.53
19:43 1 28.1 49 57,127 0 7.56 0 13.32 13.58 0 2.85 6.11 7.53
19:42 1 28.1 49 57,241 0 6.2 0 11.53 11.82 0 4.28 7.66 10.54
19:41 1 28.1 49 57,391 0 6.6 0 11.64 17.05 0 4.28 7.67 9.79
19:40 1 28.1 49 57,546 0 6.5 0 12.44 15.56 0 3.56 5.6 6.77
19:39 1 28.2 49 57,742 0 5.5 0 10.83 17.53 0 3.56 7.16 9.03
19:38 1 28.2 49 57,885 0 5.72 0 11.13 17.99 0 3.56 6.13 7.53